createdAt,value
2023-04-01T04:03:04.626Z,8.41
2023-04-01T04:07:20.083Z,8.38
2023-04-01T04:11:50.952Z,8.24
2023-04-01T04:16:04.057Z,8.27
2023-04-01T04:20:16.240Z,8.22
2023-04-01T04:24:28.355Z,8.19
2023-04-01T04:28:46.837Z,8.29
2023-04-01T04:33:00.280Z,8.24
2023-04-01T04:37:12.202Z,8.15
2023-04-01T04:41:24.132Z,8.15
2023-04-01T04:45:36.356Z,8.07
2023-04-01T04:49:48.038Z,8.02
2023-04-01T04:53:59.678Z,8.06
2023-04-01T04:58:25.881Z,8.03
2023-04-01T05:02:38.271Z,8.02
2023-04-01T05:06:49.867Z,8.05
2023-04-01T05:11:03.708Z,8.07
2023-04-01T05:15:17.800Z,7.97
2023-04-01T05:19:30.081Z,7.99
2023-04-01T05:23:42.378Z,7.98
2023-04-01T05:27:54.023Z,8.04
2023-04-01T05:32:05.746Z,8.02
2023-04-01T05:36:18.100Z,8.00
2023-04-01T05:40:30.873Z,7.93
2023-04-01T05:44:42.460Z,7.93
2023-04-01T05:48:55.053Z,7.89
2023-04-01T05:53:08.630Z,7.87
2023-04-01T05:57:21.873Z,7.93
2023-04-01T06:01:33.520Z,7.96
2023-04-01T06:05:45.440Z,7.85
2023-04-01T06:09:56.937Z,7.95
2023-04-01T06:14:21.173Z,7.99
2023-04-01T06:19:00.578Z,8.00
2023-04-01T06:23:19.080Z,7.94
2023-04-01T06:28:01.364Z,7.92
2023-04-01T06:32:37.245Z,7.92
2023-04-01T06:36:57.719Z,7.96
2023-04-01T06:41:09.281Z,7.98
2023-04-01T06:45:56.624Z,7.97
2023-04-01T06:51:00.866Z,8.00
2023-04-01T06:55:41.483Z,8.08
2023-04-01T07:00:34.509Z,8.13
2023-04-01T07:04:49.448Z,8.23
2023-04-01T07:09:09.691Z,8.16
2023-04-01T07:14:02.285Z,8.16
2023-04-01T07:18:19.074Z,8.18
2023-04-01T07:22:36.184Z,8.18
2023-04-01T07:27:12.841Z,8.22
2023-04-01T07:32:01.082Z,8.25
2023-04-01T07:36:27.695Z,8.25
2023-04-01T07:41:00.447Z,8.34
2023-04-01T07:45:28.226Z,8.38
2023-04-01T07:50:13.379Z,8.42
2023-04-01T07:54:58.242Z,8.54
2023-04-01T07:59:11.272Z,8.52
2023-04-01T08:04:13.873Z,8.56
2023-04-01T08:08:38.104Z,8.71
2023-04-01T08:13:31.069Z,8.73
2023-04-01T08:18:27.079Z,8.74
2023-04-01T08:22:46.102Z,8.74
2023-04-01T08:27:29.768Z,8.78
2023-04-01T08:32:06.852Z,8.82
2023-04-01T08:36:32.116Z,8.74
2023-04-01T08:40:58.752Z,8.91
2023-04-01T08:45:28.188Z,9.00
2023-04-01T08:49:59.665Z,9.11
2023-04-01T08:54:46.116Z,9.07
2023-04-01T08:59:22.857Z,9.06
2023-04-01T09:03:50.073Z,9.09
2023-04-01T09:08:36.904Z,9.05
2023-04-01T09:13:09.107Z,9.09
2023-04-01T09:17:39.401Z,9.06
2023-04-01T09:22:00.280Z,9.08
2023-04-01T09:26:57.291Z,9.16
2023-04-01T09:31:26.390Z,9.16
2023-04-01T09:36:47.911Z,9.22
2023-04-01T09:41:14.707Z,9.20
2023-04-01T09:46:22.513Z,9.27
2023-04-01T09:50:52.291Z,9.25
2023-04-01T09:55:19.133Z,9.28
2023-04-01T09:59:58.134Z,9.36
2023-04-01T10:04:46.486Z,9.40
2023-04-01T10:09:26.171Z,9.28
2023-04-01T10:13:50.378Z,9.22
2023-04-01T10:18:08.368Z,9.29
2023-04-01T10:22:54.679Z,9.37
2023-04-01T10:27:49.918Z,9.48
2023-04-01T10:32:53.936Z,9.54
2023-04-01T10:37:35.001Z,9.64
2023-04-01T10:42:06.129Z,9.62
2023-04-01T10:47:07.016Z,9.72
2023-04-01T10:51:39.577Z,9.79
2023-04-01T10:56:31.113Z,9.68
2023-04-01T11:01:14.572Z,9.67
2023-04-01T11:06:19.988Z,9.79
2023-04-01T11:11:05.916Z,9.87
2023-04-01T11:15:38.204Z,9.93
2023-04-01T11:20:02.248Z,9.92
2023-04-01T11:24:36.549Z,9.71
2023-04-01T11:29:30.989Z,9.82
2023-04-01T11:34:17.710Z,9.87
2023-04-01T11:38:53.117Z,9.97
2023-04-01T11:43:42.580Z,10.01
2023-04-01T11:48:28.951Z,10.04
2023-04-01T11:52:56.678Z,10.01
2023-04-01T11:57:20.724Z,10.02
2023-04-01T12:01:52.865Z,9.98
2023-04-01T12:06:27.086Z,9.85
2023-04-01T12:10:56.688Z,9.92
2023-04-01T12:15:24.702Z,9.82
2023-04-01T12:19:58.938Z,9.84
2023-04-01T12:24:36.232Z,9.76
2023-04-01T12:29:06.928Z,9.81
2023-04-01T12:33:50.986Z,9.77
2023-04-01T12:38:22.006Z,9.86
2023-04-01T12:42:52.663Z,9.82
2023-04-01T12:47:29.120Z,9.86
2023-04-01T12:51:40.652Z,9.89
2023-04-01T12:55:53.646Z,9.83
2023-04-01T13:00:25.037Z,9.91
2023-04-01T13:04:45.689Z,9.91
2023-04-01T13:09:23.007Z,9.96
2023-04-01T13:14:15.944Z,9.92
2023-04-01T13:18:54.891Z,9.86
2023-04-01T13:23:31.363Z,10.04
2023-04-01T13:27:50.888Z,10.16
2023-04-01T13:32:43.705Z,10.23
2023-04-01T13:37:36.409Z,10.22
2023-04-01T13:42:13.837Z,10.22
2023-04-01T13:46:51.345Z,10.28
2023-04-01T13:51:24.236Z,10.22
2023-04-01T13:56:04.670Z,10.25
2023-04-01T14:00:31.305Z,10.14
2023-04-01T14:05:15.493Z,10.20
2023-04-01T14:09:51.077Z,10.24
2023-04-01T14:14:37.865Z,10.16
2023-04-01T14:19:11.140Z,10.08
2023-04-01T14:23:32.598Z,9.87
2023-04-01T14:28:09.092Z,9.78
2023-04-01T14:32:59.588Z,9.75
2023-04-01T14:37:42.871Z,9.72
2023-04-01T14:42:24.504Z,9.79
2023-04-01T14:47:01.146Z,9.84
2023-04-01T14:51:29.425Z,9.82
2023-04-01T14:55:43.970Z,9.91
2023-04-01T15:00:13.320Z,9.93
2023-04-01T15:04:43.680Z,9.95
2023-04-01T15:09:24.433Z,10.00
2023-04-01T15:13:54.924Z,10.09
2023-04-01T15:18:13.928Z,10.18
2023-04-01T15:22:46.912Z,10.12
2023-04-01T15:27:23.339Z,10.12
2023-04-01T15:31:49.020Z,9.95
2023-04-01T15:36:22.905Z,10.01
2023-04-01T15:40:48.184Z,9.85
2023-04-01T15:45:35.925Z,9.85
2023-04-01T15:49:57.112Z,9.74
2023-04-01T15:54:33.419Z,9.54
2023-04-01T15:58:58.478Z,9.41
2023-04-01T16:03:28.746Z,9.45
2023-04-01T16:07:58.498Z,9.49
2023-04-01T16:12:35.752Z,9.45
2023-04-01T16:17:12.097Z,9.44
2023-04-01T16:22:01.682Z,9.42
2023-04-01T16:26:23.201Z,9.48
2023-04-01T16:30:41.738Z,9.47
2023-04-01T16:34:53.221Z,9.42
2023-04-01T16:39:30.773Z,9.50
2023-04-01T16:43:48.730Z,9.46
2023-04-01T16:48:14.976Z,9.39
2023-04-01T16:53:01.617Z,9.44
2023-04-01T16:57:21.013Z,9.39
2023-04-01T17:01:48.436Z,9.36
2023-04-01T17:06:04.676Z,9.37
2023-04-01T17:10:49.559Z,9.26
2023-04-01T17:15:23.427Z,9.25
2023-04-01T17:19:56.579Z,9.15
2023-04-01T17:24:32.763Z,9.09
2023-04-01T17:29:16.867Z,9.11
2023-04-01T17:33:56.384Z,9.09
2023-04-01T17:38:20.527Z,9.05
2023-04-01T17:42:57.866Z,9.01
2023-04-01T17:47:32.463Z,8.98
2023-04-01T17:51:57.977Z,8.97
2023-04-01T17:56:12.389Z,8.94
2023-04-01T18:00:46.075Z,8.88
2023-04-01T18:05:31.668Z,8.88
2023-04-01T18:09:46.233Z,8.84
2023-04-01T18:14:35.344Z,8.80
2023-04-01T18:19:13.996Z,8.75
2023-04-01T18:23:36.157Z,8.78
2023-04-01T18:27:52.392Z,8.79
2023-04-01T18:32:25.276Z,8.71
2023-04-01T18:36:52.761Z,8.69
2023-04-01T18:41:16.698Z,8.70
2023-04-01T18:45:33.557Z,8.73
2023-04-01T18:50:03.134Z,8.76
2023-04-01T18:54:24.856Z,8.70
2023-04-01T18:58:36.379Z,8.72
2023-04-01T19:03:01.690Z,8.73
2023-04-01T19:07:40.565Z,8.74
2023-04-01T19:12:16.926Z,8.69
2023-04-01T19:16:53.396Z,8.62
2023-04-01T19:21:40.457Z,8.64
2023-04-01T19:25:58.158Z,8.57
2023-04-01T19:30:52.063Z,8.60
2023-04-01T19:35:29.564Z,8.64
2023-04-01T19:40:04.937Z,8.62
2023-04-01T19:45:05.290Z,8.66
2023-04-01T19:49:35.037Z,8.62
2023-04-01T19:53:55.625Z,8.66
2023-04-01T19:58:17.878Z,8.67
2023-04-01T20:03:07.401Z,8.68
2023-04-01T20:07:38.596Z,8.67
2023-04-01T20:12:24.181Z,8.60
2023-04-01T20:16:50.416Z,8.62
2023-04-01T20:21:06.134Z,8.58
2023-04-01T20:25:25.670Z,8.57
2023-04-01T20:30:27.500Z,8.62
2023-04-01T20:35:20.697Z,8.66
2023-04-01T20:39:49.158Z,8.66
2023-04-01T20:44:15.428Z,8.62
2023-04-01T20:54:53.700Z,8.62
2023-04-01T20:59:38.928Z,8.66
2023-04-01T21:04:02.256Z,8.59
2023-04-01T21:08:30.868Z,8.57
2023-04-01T21:13:23.583Z,8.59
2023-04-01T21:18:12.074Z,8.62
2023-04-01T21:22:37.603Z,8.56
2023-04-01T21:26:58.912Z,8.50
